sensor_id;sensor_type;location;lat;lon;timestamp;P1;durP1;ratioP1;P2;durP2;ratioP2
60641;SDS011;46837;52.446;-1.930;2023-05-07T00:00:08;7.20;;;6.58;;
60641;SDS011;46837;52.446;-1.930;2023-05-07T00:01:07;7.06;;;6.52;;
60641;SDS011;46837;52.446;-1.930;2023-05-07T00:02:07;8.92;;;8.10;;
60641;SDS011;46837;52.446;-1.930;2023-05-07T00:03:07;8.38;;;7.32;;
60641;SDS011;46837;52.446;-1.930;2023-05-07T00:04:07;8.42;;;7.74;;
60641;SDS011;46837;52.446;-1.930;2023-05-07T00:05:07;9.20;;;8.34;;
60641;SDS011;46837;52.446;-1.930;2023-05-07T00:06:07;9.02;;;8.20;;
60641;SDS011;46837;52.446;-1.930;2023-05-07T00:07:07;9.86;;;9.10;;
60641;SDS011;46837;52.446;-1.930;2023-05-07T00:08:07;10.78;;;9.78;;
60641;SDS011;46837;52.446;-1.930;2023-05-07T00:09:07;10.18;;;9.28;;
60641;SDS011;46837;52.446;-1.930;2023-05-07T00:10:07;8.70;;;8.06;;
60641;SDS011;46837;52.446;-1.930;2023-05-07T00:11:07;9.04;;;8.34;;
60641;SDS011;46837;52.446;-1.930;2023-05-07T00:12:07;10.16;;;9.16;;
60641;SDS011;46837;52.446;-1.930;2023-05-07T00:13:07;14.78;;;12.80;;
60641;SDS011;46837;52.446;-1.930;2023-05-07T00:14:07;19.42;;;11.04;;
60641;SDS011;46837;52.446;-1.930;2023-05-07T00:15:07;11.04;;;10.10;;
60641;SDS011;46837;52.446;-1.930;2023-05-07T00:16:07;12.32;;;11.04;;
60641;SDS011;46837;52.446;-1.930;2023-05-07T00:17:07;11.90;;;10.88;;
60641;SDS011;46837;52.446;-1.930;2023-05-07T00:18:07;9.00;;;8.18;;
60641;SDS011;46837;52.446;-1.930;2023-05-07T00:19:07;9.20;;;8.50;;
60641;SDS011;46837;52.446;-1.930;2023-05-07T00:20:07;10.50;;;9.48;;
60641;SDS011;46837;52.446;-1.930;2023-05-07T00:21:07;10.14;;;9.24;;
60641;SDS011;46837;52.446;-1.930;2023-05-07T00:22:08;9.40;;;8.56;;
60641;SDS011;46837;52.446;-1.930;2023-05-07T00:23:07;9.42;;;8.54;;
60641;SDS011;46837;52.446;-1.930;2023-05-07T00:24:07;10.36;;;9.56;;
60641;SDS011;46837;52.446;-1.930;2023-05-07T00:25:07;8.62;;;7.96;;
60641;SDS011;46837;52.446;-1.930;2023-05-07T00:26:07;9.76;;;9.02;;
60641;SDS011;46837;52.446;-1.930;2023-05-07T00:27:07;9.18;;;8.40;;
60641;SDS011;46837;52.446;-1.930;2023-05-07T00:28:07;10.22;;;9.32;;
60641;SDS011;46837;52.446;-1.930;2023-05-07T00:29:07;11.98;;;10.70;;
60641;SDS011;46837;52.446;-1.930;2023-05-07T00:30:07;15.18;;;12.92;;
60641;SDS011;46837;52.446;-1.930;2023-05-07T00:31:07;13.08;;;11.98;;
60641;SDS011;46837;52.446;-1.930;2023-05-07T00:32:07;15.64;;;14.10;;
60641;SDS011;46837;52.446;-1.930;2023-05-07T00:33:07;13.22;;;12.12;;
60641;SDS011;46837;52.446;-1.930;2023-05-07T00:34:07;13.68;;;12.38;;
60641;SDS011;46837;52.446;-1.930;2023-05-07T00:35:07;15.46;;;13.96;;
60641;SDS011;46837;52.446;-1.930;2023-05-07T00:36:07;12.34;;;11.24;;
60641;SDS011;46837;52.446;-1.930;2023-05-07T00:37:07;13.42;;;12.20;;
60641;SDS011;46837;52.446;-1.930;2023-05-07T00:38:07;12.38;;;11.30;;
60641;SDS011;46837;52.446;-1.930;2023-05-07T00:39:07;12.58;;;11.48;;
60641;SDS011;46837;52.446;-1.930;2023-05-07T00:40:08;12.06;;;11.08;;
60641;SDS011;46837;52.446;-1.930;2023-05-07T00:41:07;12.86;;;10.04;;
60641;SDS011;46837;52.446;-1.930;2023-05-07T00:42:07;11.74;;;10.74;;
60641;SDS011;46837;52.446;-1.930;2023-05-07T00:43:07;10.52;;;9.68;;
60641;SDS011;46837;52.446;-1.930;2023-05-07T00:44:07;10.00;;;9.10;;
60641;SDS011;46837;52.446;-1.930;2023-05-07T00:45:07;10.62;;;9.72;;
60641;SDS011;46837;52.446;-1.930;2023-05-07T00:46:07;11.26;;;10.28;;
60641;SDS011;46837;52.446;-1.930;2023-05-07T00:47:07;10.94;;;9.38;;
60641;SDS011;46837;52.446;-1.930;2023-05-07T00:48:07;10.16;;;9.26;;
60641;SDS011;46837;52.446;-1.930;2023-05-07T00:49:07;9.90;;;8.98;;
60641;SDS011;46837;52.446;-1.930;2023-05-07T00:50:07;11.52;;;10.32;;
60641;SDS011;46837;52.446;-1.930;2023-05-07T00:51:07;12.18;;;10.56;;
60641;SDS011;46837;52.446;-1.930;2023-05-07T00:52:07;9.44;;;8.62;;
60641;SDS011;46837;52.446;-1.930;2023-05-07T00:53:07;13.82;;;10.84;;
60641;SDS011;46837;52.446;-1.930;2023-05-07T00:54:07;12.02;;;10.80;;
60641;SDS011;46837;52.446;-1.930;2023-05-07T00:55:07;9.50;;;8.42;;
60641;SDS011;46837;52.446;-1.930;2023-05-07T00:56:07;12.44;;;10.34;;
60641;SDS011;46837;52.446;-1.930;2023-05-07T00:57:07;12.40;;;11.18;;
60641;SDS011;46837;52.446;-1.930;2023-05-07T00:58:07;14.46;;;12.36;;
60641;SDS011;46837;52.446;-1.930;2023-05-07T00:59:07;16.42;;;12.52;;
60641;SDS011;46837;52.446;-1.930;2023-05-07T01:00:07;15.04;;;13.50;;
60641;SDS011;46837;52.446;-1.930;2023-05-07T01:01:07;14.06;;;11.58;;
60641;SDS011;46837;52.446;-1.930;2023-05-07T01:02:07;11.84;;;10.38;;
60641;SDS011;46837;52.446;-1.930;2023-05-07T01:03:07;19.94;;;15.34;;
60641;SDS011;46837;52.446;-1.930;2023-05-07T01:04:07;15.72;;;14.12;;
60641;SDS011;46837;52.446;-1.930;2023-05-07T01:05:07;21.56;;;14.68;;
60641;SDS011;46837;52.446;-1.930;2023-05-07T01:06:07;15.56;;;13.96;;
60641;SDS011;46837;52.446;-1.930;2023-05-07T01:07:07;14.06;;;12.70;;
60641;SDS011;46837;52.446;-1.930;2023-05-07T01:08:07;14.96;;;13.34;;
60641;SDS011;46837;52.446;-1.930;2023-05-07T01:09:07;13.86;;;12.44;;
60641;SDS011;46837;52.446;-1.930;2023-05-07T01:10:07;16.68;;;14.90;;
60641;SDS011;46837;52.446;-1.930;2023-05-07T01:11:07;16.86;;;14.78;;
60641;SDS011;46837;52.446;-1.930;2023-05-07T01:12:07;14.90;;;11.60;;
60641;SDS011;46837;52.446;-1.930;2023-05-07T01:13:07;11.58;;;10.48;;
60641;SDS011;46837;52.446;-1.930;2023-05-07T01:14:07;12.42;;;11.10;;
60641;SDS011;46837;52.446;-1.930;2023-05-07T01:15:07;13.76;;;12.48;;
60641;SDS011;46837;52.446;-1.930;2023-05-07T01:16:08;12.86;;;11.60;;
60641;SDS011;46837;52.446;-1.930;2023-05-07T01:17:07;13.20;;;11.96;;
60641;SDS011;46837;52.446;-1.930;2023-05-07T01:18:07;12.70;;;11.54;;
60641;SDS011;46837;52.446;-1.930;2023-05-07T01:19:07;12.78;;;11.66;;
60641;SDS011;46837;52.446;-1.930;2023-05-07T01:20:07;13.60;;;12.24;;
60641;SDS011;46837;52.446;-1.930;2023-05-07T01:21:07;13.50;;;11.92;;
60641;SDS011;46837;52.446;-1.930;2023-05-07T01:22:10;14.74;;;13.40;;
60641;SDS011;46837;52.446;-1.930;2023-05-07T01:23:07;16.86;;;15.14;;
60641;SDS011;46837;52.446;-1.930;2023-05-07T01:24:07;17.58;;;15.54;;
60641;SDS011;46837;52.446;-1.930;2023-05-07T01:25:07;16.48;;;14.78;;
60641;SDS011;46837;52.446;-1.930;2023-05-07T01:26:07;16.16;;;14.54;;
60641;SDS011;46837;52.446;-1.930;2023-05-07T01:27:07;16.20;;;14.50;;
60641;SDS011;46837;52.446;-1.930;2023-05-07T01:28:07;17.04;;;15.20;;
60641;SDS011;46837;52.446;-1.930;2023-05-07T01:29:07;15.14;;;13.58;;
60641;SDS011;46837;52.446;-1.930;2023-05-07T01:30:07;15.66;;;14.20;;
60641;SDS011;46837;52.446;-1.930;2023-05-07T01:31:07;16.00;;;14.40;;
60641;SDS011;46837;52.446;-1.930;2023-05-07T01:32:07;15.02;;;13.60;;
60641;SDS011;46837;52.446;-1.930;2023-05-07T01:33:10;15.90;;;14.32;;
60641;SDS011;46837;52.446;-1.930;2023-05-07T01:34:07;18.34;;;13.40;;
60641;SDS011;46837;52.446;-1.930;2023-05-07T01:35:07;15.56;;;14.18;;
60641;SDS011;46837;52.446;-1.930;2023-05-07T01:36:07;17.60;;;15.84;;
60641;SDS011;46837;52.446;-1.930;2023-05-07T01:37:07;18.84;;;15.68;;
60641;SDS011;46837;52.446;-1.930;2023-05-07T01:38:07;17.94;;;15.74;;
60641;SDS011;46837;52.446;-1.930;2023-05-07T01:39:07;19.44;;;16.08;;
60641;SDS011;46837;52.446;-1.930;2023-05-07T01:40:07;18.02;;;15.28;;
60641;SDS011;46837;52.446;-1.930;2023-05-07T01:41:07;16.66;;;14.98;;
60641;SDS011;46837;52.446;-1.930;2023-05-07T01:42:07;15.38;;;13.92;;
60641;SDS011;46837;52.446;-1.930;2023-05-07T01:43:07;14.66;;;13.26;;
60641;SDS011;46837;52.446;-1.930;2023-05-07T01:44:07;15.82;;;14.40;;
60641;SDS011;46837;52.446;-1.930;2023-05-07T01:45:07;15.24;;;13.78;;
60641;SDS011;46837;52.446;-1.930;2023-05-07T01:46:07;15.44;;;13.84;;
60641;SDS011;46837;52.446;-1.930;2023-05-07T01:47:07;16.08;;;14.46;;
60641;SDS011;46837;52.446;-1.930;2023-05-07T01:48:07;15.10;;;13.74;;
60641;SDS011;46837;52.446;-1.930;2023-05-07T01:49:07;14.74;;;13.26;;
60641;SDS011;46837;52.446;-1.930;2023-05-07T01:50:07;15.02;;;13.44;;
60641;SDS011;46837;52.446;-1.930;2023-05-07T01:51:07;13.92;;;12.66;;
60641;SDS011;46837;52.446;-1.930;2023-05-07T01:52:07;15.28;;;13.70;;
60641;SDS011;46837;52.446;-1.930;2023-05-07T01:53:07;13.86;;;12.56;;
60641;SDS011;46837;52.446;-1.930;2023-05-07T01:54:07;16.08;;;14.50;;
60641;SDS011;46837;52.446;-1.930;2023-05-07T01:55:07;14.64;;;13.28;;
60641;SDS011;46837;52.446;-1.930;2023-05-07T01:56:07;13.10;;;11.94;;
60641;SDS011;46837;52.446;-1.930;2023-05-07T01:57:07;14.62;;;13.26;;
60641;SDS011;46837;52.446;-1.930;2023-05-07T01:58:07;14.32;;;12.92;;
60641;SDS011;46837;52.446;-1.930;2023-05-07T01:59:07;14.92;;;13.42;;
60641;SDS011;46837;52.446;-1.930;2023-05-07T02:00:07;15.88;;;13.64;;
60641;SDS011;46837;52.446;-1.930;2023-05-07T02:01:07;15.14;;;13.80;;
60641;SDS011;46837;52.446;-1.930;2023-05-07T02:02:07;15.40;;;13.94;;
60641;SDS011;46837;52.446;-1.930;2023-05-07T02:03:07;15.88;;;14.20;;
60641;SDS011;46837;52.446;-1.930;2023-05-07T02:04:07;14.62;;;13.32;;
60641;SDS011;46837;52.446;-1.930;2023-05-07T02:05:07;14.38;;;13.12;;
60641;SDS011;46837;52.446;-1.930;2023-05-07T02:06:07;17.56;;;13.40;;
60641;SDS011;46837;52.446;-1.930;2023-05-07T02:07:07;15.50;;;14.06;;
60641;SDS011;46837;52.446;-1.930;2023-05-07T02:08:07;14.32;;;12.96;;
60641;SDS011;46837;52.446;-1.930;2023-05-07T02:09:07;14.86;;;13.48;;
60641;SDS011;46837;52.446;-1.930;2023-05-07T02:10:07;14.86;;;13.46;;
60641;SDS011;46837;52.446;-1.930;2023-05-07T02:11:07;14.40;;;12.98;;
60641;SDS011;46837;52.446;-1.930;2023-05-07T02:12:07;14.54;;;13.06;;
60641;SDS011;46837;52.446;-1.930;2023-05-07T02:13:07;13.42;;;12.24;;
60641;SDS011;46837;52.446;-1.930;2023-05-07T02:14:07;15.30;;;13.88;;
60641;SDS011;46837;52.446;-1.930;2023-05-07T02:15:07;14.36;;;12.92;;
60641;SDS011;46837;52.446;-1.930;2023-05-07T02:16:07;15.42;;;13.94;;
60641;SDS011;46837;52.446;-1.930;2023-05-07T02:17:07;13.68;;;12.40;;
60641;SDS011;46837;52.446;-1.930;2023-05-07T02:18:07;15.04;;;13.66;;
60641;SDS011;46837;52.446;-1.930;2023-05-07T02:19:07;15.46;;;13.82;;
60641;SDS011;46837;52.446;-1.930;2023-05-07T02:20:07;14.24;;;12.78;;
60641;SDS011;46837;52.446;-1.930;2023-05-07T02:21:07;15.30;;;13.82;;
60641;SDS011;46837;52.446;-1.930;2023-05-07T02:22:07;14.84;;;13.44;;
60641;SDS011;46837;52.446;-1.930;2023-05-07T02:23:07;16.48;;;13.90;;
60641;SDS011;46837;52.446;-1.930;2023-05-07T02:24:07;15.98;;;14.20;;
60641;SDS011;46837;52.446;-1.930;2023-05-07T02:25:07;14.60;;;13.22;;
60641;SDS011;46837;52.446;-1.930;2023-05-07T02:26:07;17.38;;;14.26;;
60641;SDS011;46837;52.446;-1.930;2023-05-07T02:27:07;14.64;;;13.18;;
60641;SDS011;46837;52.446;-1.930;2023-05-07T02:28:07;15.54;;;14.08;;
60641;SDS011;46837;52.446;-1.930;2023-05-07T02:29:07;14.58;;;13.14;;
60641;SDS011;46837;52.446;-1.930;2023-05-07T02:30:07;14.20;;;12.46;;
60641;SDS011;46837;52.446;-1.930;2023-05-07T02:31:07;15.84;;;14.10;;
60641;SDS011;46837;52.446;-1.930;2023-05-07T02:32:07;16.42;;;14.86;;
60641;SDS011;46837;52.446;-1.930;2023-05-07T02:33:07;14.72;;;13.40;;
60641;SDS011;46837;52.446;-1.930;2023-05-07T02:34:07;15.96;;;14.48;;
60641;SDS011;46837;52.446;-1.930;2023-05-07T02:35:07;16.22;;;14.48;;
60641;SDS011;46837;52.446;-1.930;2023-05-07T02:36:10;16.98;;;14.98;;
60641;SDS011;46837;52.446;-1.930;2023-05-07T02:37:07;15.50;;;14.04;;
60641;SDS011;46837;52.446;-1.930;2023-05-07T02:38:07;16.84;;;15.20;;
60641;SDS011;46837;52.446;-1.930;2023-05-07T02:39:07;15.28;;;13.74;;
60641;SDS011;46837;52.446;-1.930;2023-05-07T02:40:07;18.12;;;16.12;;
60641;SDS011;46837;52.446;-1.930;2023-05-07T02:41:07;16.56;;;14.92;;
60641;SDS011;46837;52.446;-1.930;2023-05-07T02:42:07;16.20;;;14.68;;
60641;SDS011;46837;52.446;-1.930;2023-05-07T02:43:07;16.86;;;15.22;;
60641;SDS011;46837;52.446;-1.930;2023-05-07T02:44:07;16.22;;;14.58;;
60641;SDS011;46837;52.446;-1.930;2023-05-07T02:45:07;16.12;;;14.62;;
60641;SDS011;46837;52.446;-1.930;2023-05-07T02:46:07;17.26;;;15.48;;
60641;SDS011;46837;52.446;-1.930;2023-05-07T02:47:09;16.26;;;14.78;;
60641;SDS011;46837;52.446;-1.930;2023-05-07T02:48:07;16.90;;;15.02;;
60641;SDS011;46837;52.446;-1.930;2023-05-07T02:49:07;20.52;;;16.36;;
60641;SDS011;46837;52.446;-1.930;2023-05-07T02:50:07;15.72;;;14.24;;
60641;SDS011;46837;52.446;-1.930;2023-05-07T02:51:07;16.40;;;14.78;;
60641;SDS011;46837;52.446;-1.930;2023-05-07T02:52:07;18.88;;;17.00;;
60641;SDS011;46837;52.446;-1.930;2023-05-07T02:53:07;16.00;;;14.60;;
60641;SDS011;46837;52.446;-1.930;2023-05-07T02:54:07;17.44;;;15.66;;
60641;SDS011;46837;52.446;-1.930;2023-05-07T02:55:07;16.72;;;14.98;;
60641;SDS011;46837;52.446;-1.930;2023-05-07T02:56:07;15.92;;;14.44;;
60641;SDS011;46837;52.446;-1.930;2023-05-07T02:57:07;16.26;;;14.76;;
60641;SDS011;46837;52.446;-1.930;2023-05-07T02:58:07;15.70;;;14.24;;
60641;SDS011;46837;52.446;-1.930;2023-05-07T02:59:07;16.72;;;14.96;;
60641;SDS011;46837;52.446;-1.930;2023-05-07T03:00:10;15.28;;;13.78;;
60641;SDS011;46837;52.446;-1.930;2023-05-07T03:01:07;16.50;;;14.90;;
60641;SDS011;46837;52.446;-1.930;2023-05-07T03:02:07;15.86;;;14.26;;
60641;SDS011;46837;52.446;-1.930;2023-05-07T03:03:07;15.12;;;13.80;;
60641;SDS011;46837;52.446;-1.930;2023-05-07T03:04:07;15.14;;;13.72;;
60641;SDS011;46837;52.446;-1.930;2023-05-07T03:05:07;15.64;;;14.22;;
60641;SDS011;46837;52.446;-1.930;2023-05-07T03:06:07;17.12;;;15.52;;
60641;SDS011;46837;52.446;-1.930;2023-05-07T03:07:07;14.58;;;13.26;;
60641;SDS011;46837;52.446;-1.930;2023-05-07T03:08:07;15.82;;;14.42;;
60641;SDS011;46837;52.446;-1.930;2023-05-07T03:09:07;16.30;;;14.68;;
60641;SDS011;46837;52.446;-1.930;2023-05-07T03:10:07;16.90;;;15.22;;
60641;SDS011;46837;52.446;-1.930;2023-05-07T03:11:07;14.86;;;13.40;;
60641;SDS011;46837;52.446;-1.930;2023-05-07T03:12:07;16.06;;;14.56;;
60641;SDS011;46837;52.446;-1.930;2023-05-07T03:13:07;16.58;;;15.08;;
60641;SDS011;46837;52.446;-1.930;2023-05-07T03:14:07;16.84;;;15.20;;
60641;SDS011;46837;52.446;-1.930;2023-05-07T03:15:07;16.32;;;14.82;;
60641;SDS011;46837;52.446;-1.930;2023-05-07T03:16:07;15.78;;;14.16;;
60641;SDS011;46837;52.446;-1.930;2023-05-07T03:17:07;16.88;;;15.16;;
60641;SDS011;46837;52.446;-1.930;2023-05-07T03:18:07;17.46;;;15.80;;
60641;SDS011;46837;52.446;-1.930;2023-05-07T03:19:07;17.20;;;15.50;;
60641;SDS011;46837;52.446;-1.930;2023-05-07T03:20:07;17.58;;;15.90;;
60641;SDS011;46837;52.446;-1.930;2023-05-07T03:21:07;17.82;;;15.98;;
60641;SDS011;46837;52.446;-1.930;2023-05-07T03:22:07;17.12;;;15.54;;
60641;SDS011;46837;52.446;-1.930;2023-05-07T03:23:07;17.22;;;15.62;;
60641;SDS011;46837;52.446;-1.930;2023-05-07T03:24:07;17.48;;;15.78;;
60641;SDS011;46837;52.446;-1.930;2023-05-07T03:25:07;19.14;;;17.22;;
60641;SDS011;46837;52.446;-1.930;2023-05-07T03:26:07;17.26;;;15.68;;
60641;SDS011;46837;52.446;-1.930;2023-05-07T03:27:07;17.96;;;16.36;;
60641;SDS011;46837;52.446;-1.930;2023-05-07T03:28:07;18.60;;;16.80;;
60641;SDS011;46837;52.446;-1.930;2023-05-07T03:29:07;20.50;;;17.80;;
60641;SDS011;46837;52.446;-1.930;2023-05-07T03:30:07;19.16;;;17.16;;
60641;SDS011;46837;52.446;-1.930;2023-05-07T03:31:07;18.42;;;16.52;;
60641;SDS011;46837;52.446;-1.930;2023-05-07T03:32:07;16.90;;;15.42;;
60641;SDS011;46837;52.446;-1.930;2023-05-07T03:33:07;17.18;;;14.36;;
60641;SDS011;46837;52.446;-1.930;2023-05-07T03:34:07;18.14;;;16.22;;
60641;SDS011;46837;52.446;-1.930;2023-05-07T03:35:07;18.14;;;16.32;;
60641;SDS011;46837;52.446;-1.930;2023-05-07T03:36:07;18.52;;;16.78;;
60641;SDS011;46837;52.446;-1.930;2023-05-07T03:37:07;20.22;;;17.42;;
60641;SDS011;46837;52.446;-1.930;2023-05-07T03:38:07;18.98;;;17.14;;
60641;SDS011;46837;52.446;-1.930;2023-05-07T03:39:07;18.04;;;16.42;;
60641;SDS011;46837;52.446;-1.930;2023-05-07T03:40:07;18.12;;;16.30;;
60641;SDS011;46837;52.446;-1.930;2023-05-07T03:41:07;17.96;;;16.26;;
60641;SDS011;46837;52.446;-1.930;2023-05-07T03:42:07;19.44;;;17.44;;
60641;SDS011;46837;52.446;-1.930;2023-05-07T03:43:07;18.26;;;16.50;;
60641;SDS011;46837;52.446;-1.930;2023-05-07T03:44:07;16.40;;;14.80;;
60641;SDS011;46837;52.446;-1.930;2023-05-07T03:45:07;19.52;;;17.72;;
60641;SDS011;46837;52.446;-1.930;2023-05-07T03:46:07;18.44;;;16.74;;
60641;SDS011;46837;52.446;-1.930;2023-05-07T03:47:07;18.04;;;16.30;;
60641;SDS011;46837;52.446;-1.930;2023-05-07T03:48:07;18.60;;;16.72;;
60641;SDS011;46837;52.446;-1.930;2023-05-07T03:49:07;18.92;;;17.14;;
60641;SDS011;46837;52.446;-1.930;2023-05-07T03:50:07;21.12;;;16.38;;
60641;SDS011;46837;52.446;-1.930;2023-05-07T03:51:07;18.88;;;16.94;;
60641;SDS011;46837;52.446;-1.930;2023-05-07T03:52:07;16.60;;;15.04;;
60641;SDS011;46837;52.446;-1.930;2023-05-07T03:53:07;17.80;;;16.18;;
60641;SDS011;46837;52.446;-1.930;2023-05-07T03:54:07;18.62;;;16.86;;
60641;SDS011;46837;52.446;-1.930;2023-05-07T03:55:07;16.56;;;14.90;;
60641;SDS011;46837;52.446;-1.930;2023-05-07T03:56:07;21.12;;;16.92;;
60641;SDS011;46837;52.446;-1.930;2023-05-07T03:57:07;18.14;;;16.24;;
60641;SDS011;46837;52.446;-1.930;2023-05-07T03:58:07;18.56;;;16.86;;
60641;SDS011;46837;52.446;-1.930;2023-05-07T03:59:07;16.46;;;14.84;;
60641;SDS011;46837;52.446;-1.930;2023-05-07T04:00:07;17.46;;;15.62;;
60641;SDS011;46837;52.446;-1.930;2023-05-07T04:01:07;17.42;;;15.76;;
60641;SDS011;46837;52.446;-1.930;2023-05-07T04:02:07;16.48;;;14.66;;
60641;SDS011;46837;52.446;-1.930;2023-05-07T04:03:07;15.42;;;13.92;;
60641;SDS011;46837;52.446;-1.930;2023-05-07T04:04:07;15.52;;;14.02;;
60641;SDS011;46837;52.446;-1.930;2023-05-07T04:05:07;16.08;;;14.54;;
60641;SDS011;46837;52.446;-1.930;2023-05-07T04:06:07;16.58;;;14.36;;
60641;SDS011;46837;52.446;-1.930;2023-05-07T04:07:07;15.34;;;13.72;;
60641;SDS011;46837;52.446;-1.930;2023-05-07T04:08:07;14.16;;;12.72;;
60641;SDS011;46837;52.446;-1.930;2023-05-07T04:09:07;15.72;;;14.18;;
60641;SDS011;46837;52.446;-1.930;2023-05-07T04:10:07;14.84;;;13.50;;
60641;SDS011;46837;52.446;-1.930;2023-05-07T04:11:07;15.02;;;13.46;;
60641;SDS011;46837;52.446;-1.930;2023-05-07T04:12:07;15.68;;;14.10;;
60641;SDS011;46837;52.446;-1.930;2023-05-07T04:13:07;15.38;;;13.82;;
60641;SDS011;46837;52.446;-1.930;2023-05-07T04:14:07;13.96;;;12.78;;
60641;SDS011;46837;52.446;-1.930;2023-05-07T04:15:07;13.06;;;11.74;;
60641;SDS011;46837;52.446;-1.930;2023-05-07T04:16:07;13.16;;;11.90;;
60641;SDS011;46837;52.446;-1.930;2023-05-07T04:17:07;14.94;;;13.30;;
60641;SDS011;46837;52.446;-1.930;2023-05-07T04:18:07;17.38;;;13.32;;
60641;SDS011;46837;52.446;-1.930;2023-05-07T04:19:07;12.58;;;11.46;;
60641;SDS011;46837;52.446;-1.930;2023-05-07T04:20:14;14.22;;;12.78;;
60641;SDS011;46837;52.446;-1.930;2023-05-07T04:22:07;13.08;;;11.74;;
60641;SDS011;46837;52.446;-1.930;2023-05-07T04:23:07;17.46;;;15.08;;
60641;SDS011;46837;52.446;-1.930;2023-05-07T04:24:07;17.68;;;15.28;;
60641;SDS011;46837;52.446;-1.930;2023-05-07T04:25:07;27.96;;;20.02;;
60641;SDS011;46837;52.446;-1.930;2023-05-07T04:26:07;16.04;;;14.38;;
60641;SDS011;46837;52.446;-1.930;2023-05-07T04:27:07;18.34;;;13.66;;
60641;SDS011;46837;52.446;-1.930;2023-05-07T04:28:07;20.64;;;13.94;;
60641;SDS011;46837;52.446;-1.930;2023-05-07T04:29:07;17.90;;;12.86;;
60641;SDS011;46837;52.446;-1.930;2023-05-07T04:30:07;14.08;;;12.78;;
60641;SDS011;46837;52.446;-1.930;2023-05-07T04:31:07;15.10;;;13.24;;
60641;SDS011;46837;52.446;-1.930;2023-05-07T04:32:07;17.20;;;13.56;;
60641;SDS011;46837;52.446;-1.930;2023-05-07T04:33:07;15.52;;;12.78;;
60641;SDS011;46837;52.446;-1.930;2023-05-07T04:34:07;13.86;;;11.78;;
60641;SDS011;46837;52.446;-1.930;2023-05-07T04:35:07;18.24;;;12.06;;
60641;SDS011;46837;52.446;-1.930;2023-05-07T04:36:07;19.34;;;13.62;;
60641;SDS011;46837;52.446;-1.930;2023-05-07T04:37:07;13.48;;;12.16;;
60641;SDS011;46837;52.446;-1.930;2023-05-07T04:38:07;17.10;;;12.14;;
60641;SDS011;46837;52.446;-1.930;2023-05-07T04:39:07;14.62;;;12.64;;
60641;SDS011;46837;52.446;-1.930;2023-05-07T04:40:07;13.42;;;12.08;;
60641;SDS011;46837;52.446;-1.930;2023-05-07T04:41:08;13.82;;;12.46;;
60641;SDS011;46837;52.446;-1.930;2023-05-07T04:42:08;11.94;;;10.60;;
60641;SDS011;46837;52.446;-1.930;2023-05-07T04:43:07;15.96;;;12.18;;
60641;SDS011;46837;52.446;-1.930;2023-05-07T04:44:07;16.26;;;12.52;;
60641;SDS011;46837;52.446;-1.930;2023-05-07T04:45:07;14.92;;;13.30;;
60641;SDS011;46837;52.446;-1.930;2023-05-07T04:46:07;13.74;;;11.52;;
60641;SDS011;46837;52.446;-1.930;2023-05-07T04:47:07;14.82;;;11.88;;
60641;SDS011;46837;52.446;-1.930;2023-05-07T04:48:08;12.88;;;11.64;;
60641;SDS011;46837;52.446;-1.930;2023-05-07T04:49:07;13.10;;;11.80;;
60641;SDS011;46837;52.446;-1.930;2023-05-07T04:50:07;13.64;;;12.10;;
60641;SDS011;46837;52.446;-1.930;2023-05-07T04:51:07;14.20;;;11.10;;
60641;SDS011;46837;52.446;-1.930;2023-05-07T04:52:07;14.64;;;11.26;;
60641;SDS011;46837;52.446;-1.930;2023-05-07T04:53:07;13.20;;;11.82;;
60641;SDS011;46837;52.446;-1.930;2023-05-07T04:54:07;13.38;;;11.78;;
60641;SDS011;46837;52.446;-1.930;2023-05-07T04:55:07;13.96;;;12.60;;
60641;SDS011;46837;52.446;-1.930;2023-05-07T04:56:07;14.56;;;11.12;;
60641;SDS011;46837;52.446;-1.930;2023-05-07T04:57:07;13.30;;;11.88;;
60641;SDS011;46837;52.446;-1.930;2023-05-07T04:58:07;11.54;;;10.40;;
60641;SDS011;46837;52.446;-1.930;2023-05-07T04:59:07;13.30;;;11.60;;
60641;SDS011;46837;52.446;-1.930;2023-05-07T05:00:07;13.02;;;11.28;;
60641;SDS011;46837;52.446;-1.930;2023-05-07T05:01:07;16.42;;;11.48;;
60641;SDS011;46837;52.446;-1.930;2023-05-07T05:02:07;12.80;;;10.74;;
60641;SDS011;46837;52.446;-1.930;2023-05-07T05:03:07;14.22;;;10.92;;
60641;SDS011;46837;52.446;-1.930;2023-05-07T05:04:07;13.84;;;12.44;;
60641;SDS011;46837;52.446;-1.930;2023-05-07T05:05:07;11.42;;;9.88;;
60641;SDS011;46837;52.446;-1.930;2023-05-07T05:06:07;11.68;;;10.24;;
60641;SDS011;46837;52.446;-1.930;2023-05-07T05:07:07;12.62;;;10.10;;
60641;SDS011;46837;52.446;-1.930;2023-05-07T05:08:07;15.32;;;10.26;;
60641;SDS011;46837;52.446;-1.930;2023-05-07T05:09:07;14.34;;;9.36;;
60641;SDS011;46837;52.446;-1.930;2023-05-07T05:10:07;11.64;;;9.90;;
60641;SDS011;46837;52.446;-1.930;2023-05-07T05:11:07;13.50;;;10.86;;
60641;SDS011;46837;52.446;-1.930;2023-05-07T05:12:08;11.28;;;9.88;;
60641;SDS011;46837;52.446;-1.930;2023-05-07T05:13:07;14.50;;;9.72;;
60641;SDS011;46837;52.446;-1.930;2023-05-07T05:14:07;11.88;;;9.30;;
60641;SDS011;46837;52.446;-1.930;2023-05-07T05:15:07;11.28;;;10.06;;
60641;SDS011;46837;52.446;-1.930;2023-05-07T05:16:07;12.72;;;10.02;;
60641;SDS011;46837;52.446;-1.930;2023-05-07T05:17:07;11.40;;;10.16;;
60641;SDS011;46837;52.446;-1.930;2023-05-07T05:18:07;14.58;;;9.56;;
60641;SDS011;46837;52.446;-1.930;2023-05-07T05:19:07;11.88;;;9.06;;
60641;SDS011;46837;52.446;-1.930;2023-05-07T05:20:07;12.50;;;10.10;;
60641;SDS011;46837;52.446;-1.930;2023-05-07T05:21:07;12.76;;;8.36;;
60641;SDS011;46837;52.446;-1.930;2023-05-07T05:22:07;14.58;;;9.88;;
60641;SDS011;46837;52.446;-1.930;2023-05-07T05:23:07;12.34;;;9.80;;
60641;SDS011;46837;52.446;-1.930;2023-05-07T05:24:07;10.38;;;8.70;;
60641;SDS011;46837;52.446;-1.930;2023-05-07T05:25:07;9.24;;;8.16;;
60641;SDS011;46837;52.446;-1.930;2023-05-07T05:26:07;11.66;;;8.22;;
60641;SDS011;46837;52.446;-1.930;2023-05-07T05:27:07;10.86;;;8.50;;
60641;SDS011;46837;52.446;-1.930;2023-05-07T05:28:07;11.24;;;8.90;;
60641;SDS011;46837;52.446;-1.930;2023-05-07T05:29:07;10.70;;;9.18;;
60641;SDS011;46837;52.446;-1.930;2023-05-07T05:30:07;11.50;;;8.22;;
60641;SDS011;46837;52.446;-1.930;2023-05-07T05:31:07;9.44;;;7.74;;
60641;SDS011;46837;52.446;-1.930;2023-05-07T05:32:07;11.84;;;7.62;;
60641;SDS011;46837;52.446;-1.930;2023-05-07T05:33:07;7.36;;;6.30;;
60641;SDS011;46837;52.446;-1.930;2023-05-07T05:34:07;12.34;;;8.42;;
60641;SDS011;46837;52.446;-1.930;2023-05-07T05:35:07;9.86;;;7.06;;
60641;SDS011;46837;52.446;-1.930;2023-05-07T05:36:09;10.24;;;6.92;;
60641;SDS011;46837;52.446;-1.930;2023-05-07T05:37:07;7.96;;;6.68;;
60641;SDS011;46837;52.446;-1.930;2023-05-07T05:38:07;9.28;;;6.26;;
60641;SDS011;46837;52.446;-1.930;2023-05-07T05:39:07;7.52;;;6.36;;
60641;SDS011;46837;52.446;-1.930;2023-05-07T05:40:07;9.84;;;6.74;;
60641;SDS011;46837;52.446;-1.930;2023-05-07T05:41:07;8.74;;;5.76;;
60641;SDS011;46837;52.446;-1.930;2023-05-07T05:42:07;12.08;;;6.94;;
60641;SDS011;46837;52.446;-1.930;2023-05-07T05:43:07;12.72;;;6.02;;
60641;SDS011;46837;52.446;-1.930;2023-05-07T05:44:07;10.66;;;6.82;;
60641;SDS011;46837;52.446;-1.930;2023-05-07T05:45:07;5.98;;;5.04;;
60641;SDS011;46837;52.446;-1.930;2023-05-07T05:46:07;9.18;;;5.64;;
60641;SDS011;46837;52.446;-1.930;2023-05-07T05:47:07;9.86;;;5.60;;
60641;SDS011;46837;52.446;-1.930;2023-05-07T05:48:07;12.38;;;5.20;;